Hoppa till innehåll

METAR väder och rapporter - ESSB

Nedan listas information från vald flygplats. Andra METARs finns längre ned på sidan. Kontakta oss om någon saknas eller skriv in egen ICAO-kod.

Coded METAR: 2023/02/02 07:20 ESSB 020720Z 32009KT 290V350 9999 SCT013 BKN027 M03/M05 Q1008

Weather Report @ ESSB

Issued: 2nd Feb 2023 at 08:20 CET

Wind: gentle breeze from the Northwest (320 degrees) at 9 knots (10 mph, 17 kph, 5 mps, Force 3)
Wind: direction varying between from West-Northwest (290 degrees) and from the North (350 degrees)
Visibility: 10km or more
Cloud: scattered at 1300 feet
Cloud: broken at 2700 feet
Temperature: 27F / -3C
Dewpoint: 23F / -5C
Humidity: 86%
Pressure: 1008 hPa

Coded TAF: 2017/03/27 06:35 TAF ESSB 270530Z 2706/2724 27008KT CAVOK BECMG 2710/2713 29015G25KT

Weather Forecast @ ESSB

Issued: 27th Mar 2017 at 08:35 CEST

Valid : 27th Mar 08:00 until 28th Mar 02:00 CEST

08:00 CEST
DATA TOO OLD TO BE USEFUL !

Internet delivery of weather data is not secure or reliable enough for operational purposes.

NEVER RELY ON THE OUTPUT OF THIS SCRIPT TO MAKE DECISIONS ABOUT ANYTHING IN WHICH THE WEATHER FORECAST AND ITS INTERPRETATION COULD BE AN ISSUE OF SAFETY.

Andra intressanta METARs

Klicka på önskad rubrik nedan för att visa nuvarande väder för den platsen.

Avstånd från stationen: NO 27kmESGG - Göteborg (Landvetter)
Uppdaterad: 2023-02-02 08:20
 Vind från N
Vind: N 11 km/h
Temperatur: -6°C
Vindavkylning: -11°C
Daggpunkt: -7°C
Luftfuktighet: 93%
Barometer: 1011 hPa
Summering: Klart
Sikt: mer än 10 km
2023/02/02 07:20 ESGG 020720Z 35006KT CAVOK M06/M07 Q1011
Klart
Klart
  Visa detaljer för Göteborg (Landvetter)
Avstånd från stationen: N 28kmESGP - Göteborg (Säve)
Uppdaterad: 2023-02-02 08:20
 Vind från calm
Vind: Vindstilla
Temperatur: -5°C
Daggpunkt: -7°C
Luftfuktighet: 86%
Barometer: 1012 hPa
Moln: Klart
Sikt: 10 km
2023/02/02 07:20 ESGP 020720Z AUTO 00000KT 9999 NCD M05/M07 Q1012
Klart
Klart
  Visa detaljer för Göteborg (Säve)
Avstånd från stationen: NO 419kmESSA - Stockholm (Arlanda)
Uppdaterad: 2023-02-02 08:20
 Vind från NV
Vind: NV 13 km/h
Temperatur: -5°C
Vindavkylning: -10°C
Daggpunkt: -7°C
Luftfuktighet: 86%
Barometer: 1007 hPa
Moln: Delvis molnigt
Sikt: 10 km
Molninformation: Delvis molnigt 335 m
2023/02/02 07:20 ESSA 020720Z 32007KT 9999 SCT011 M05/M07 Q1007 TEMPO BKN011
Delvis molnigt
Delvis molnigt
  Visa detaljer för Stockholm (Arlanda)
Avstånd från stationen: ONO 404kmESSB - Stockholm (Bromma)
Uppdaterad: 2023-02-02 08:20
 Vind från NV
Vind: NV 17 km/h
Temperatur: -3°C
Vindavkylning: -8°C
Daggpunkt: -5°C
Luftfuktighet: 86%
Barometer: 1008 hPa
Moln: Övervägande molnigt
Sikt: 10 km
Molninformation: Delvis molnigt 396 m
Övervägande molnigt 823 m
2023/02/02 07:20 ESSB 020720Z 32009KT 290V350 9999 SCT013 BKN027 M03/M05 Q1008
Övervägande molnigt
Övervägande molnigt
  Visa detaljer för Stockholm (Bromma)
Avstånd från stationen: ONO 323kmESKN - Stockholm (Skavsta)
Uppdaterad: 2023-02-02 08:20
 Vind från NV
Vind: NV 17 km/h
Temperatur: -3°C
Vindavkylning: -8°C
Daggpunkt: -5°C
Luftfuktighet: 86%
Barometer: 1008 hPa
Moln: Övervägande molnigt
Sikt: 10 km
Molninformation: Övervägande molnigt 305 m
2023/02/02 07:20 ESKN 020720Z 32009KT 290V350 9999 BKN010 M03/M05 Q1008
Övervägande molnigt
Övervägande molnigt
  Visa detaljer för Stockholm (Skavsta)
Avstånd från stationen: SSO 238kmESMS - Malmö flygplats (Sturup)
Uppdaterad: 2023-02-02 08:20
 Vind från NNV
Vind: NNV 24 km/h
Temperatur: 1°C
Vindavkylning: -4°C
Daggpunkt: -2°C
Luftfuktighet: 81%
Barometer: 1010 hPa
Moln: Övervägande molnigt
Sikt: 10 km
Molninformation: Delvis molnigt 549 m
Övervägande molnigt 945 m
2023/02/02 07:20 ESMS 020720Z 34013KT 9999 SCT018 BKN031 01/M02 Q1010
Övervägande molnigt
Övervägande molnigt
  Visa detaljer för Malmö flygplats (Sturup)
Avstånd från stationen: O 382kmESSV - Visby flygplats
Uppdaterad: 2023-02-02 08:20
 Vind från N
Vind: N 30 km/h
Temperatur: 0°C
Vindavkylning: -6°C
Daggpunkt: -1°C
Luftfuktighet: 93%
Barometer: 1005 hPa
Moln: Genommulet
Sikt: 10 km
Molninformation: Genommulet 335 m
2023/02/02 07:20 ESSV 020720Z 35016KT 9999 OVC011 00/M01 Q1005
Genommulet
Genommulet
  Visa detaljer för Visby flygplats
Avstånd från stationen: NNO 92kmESGT - Trollhättan
Uppdaterad: 2023-02-02 08:20
 Vind från NNV
Vind: NNV 7 km/h
Temperatur: -6°C
Vindavkylning: -10°C
Daggpunkt: -8°C
Luftfuktighet: 86%
Barometer: 1012 hPa
Summering: Klart
Sikt: mer än 10 km
2023/02/02 07:20 ESGT 020720Z 33004KT CAVOK M06/M08 Q1012
Klart
Klart
  Visa detaljer för Trollhättan
Avstånd från stationen: ONO 129kmESGJ - Jönköpings flygplats
Uppdaterad: 2023-02-02 08:20
 Vind från NNV
Vind: NNV 17 km/h
Temperatur: -3°C
Vindavkylning: -8°C
Daggpunkt: -4°C
Luftfuktighet: 93%
Barometer: 1009 hPa
Moln: Övervägande molnigt
Sikt: 10 km
Molninformation: Övervägande molnigt 335 m
2023/02/02 07:20 ESGJ 020720Z 34009KT 9999 BKN011 M03/M04 Q1009
Övervägande molnigt
Övervägande molnigt
  Visa detaljer för Jönköpings flygplats
Avstånd från stationen: NNO 229kmESOK - Karlstad
Uppdaterad: 2023-02-02 08:20
 Vind från NNV
Vind: NNV 11 km/h
Temperatur: -8°C
Vindavkylning: -13°C
Daggpunkt: -10°C
Luftfuktighet: 86%
Barometer: 1011 hPa
Summering: Klart
Sikt: mer än 10 km
2023/02/02 07:20 ESOK 020720Z 33006KT CAVOK M08/M10 Q1011
Klart
Klart
  Visa detaljer för Karlstad
Avstånd från stationen: N 643kmESNZ - Östersund (Frösön)
Uppdaterad: 2023-02-02 08:20
 Vind från SSV
Vind: SSV 6 km/h
Temperatur: -12°C
Daggpunkt: -13°C
Luftfuktighet: 92%
Barometer: 1008 hPa
Moln: Genommulet
Sikt: 10 km
Molninformation: Delvis molnigt 427 m
Övervägande molnigt 518 m
Genommulet 975 m
2023/02/02 07:20 ESNZ 020720Z 20003KT 9999 SCT014 BKN017 OVC032 M12/M13 Q1008
Genommulet
Genommulet
  Visa detaljer för Östersund (Frösön)
Avstånd från stationen: SSO 216kmEKCH - Köpenhamn (Kastrup)
Uppdaterad: 2023-02-02 08:20
 Vind från NNV
Vind: NNV 24 km/h
Temperatur: 2°C
Vindavkylning: -3°C
Daggpunkt: -3°C
Luftfuktighet: 70%
Barometer: 1012 hPa
Moln: Övervägande molnigt
Sikt: 10 km
Molninformation: Övervägande molnigt 701 m
2023/02/02 07:20 EKCH 020720Z AUTO 34013KT 9999 BKN023/// 02/M03 Q1012 NOSIG
Övervägande molnigt
Övervägande molnigt
  Visa detaljer för Köpenhamn (Kastrup)
Avstånd från stationen: SV 263kmEKBI - Billund Airport
Uppdaterad: 2023-02-02 08:20
 Vind från NNV
Vind: NNV 4 km/h
Temperatur: -2°C
Daggpunkt: -3°C
Luftfuktighet: 93%
Barometer: 1014 hPa
Moln: Klart
Sikt: 10 km
2023/02/02 07:20 EKBI 020720Z AUTO 34002KT 9999 NCD M02/M03 Q1014
Klart
Klart
  Visa detaljer för Billund Airport
Avstånd från stationen: N 302kmENGM - Oslo (Gardermoen)
Uppdaterad: 2023-02-02 08:20
 Vind från varierande
Vind: varierande 2 km/h
Temperatur: -12°C
Daggpunkt: -14°C
Luftfuktighet: 85%
Barometer: 1011 hPa
Summering: Klart
Sikt: mer än 10 km
2023/02/02 07:20 ENGM 020720Z VRB01KT CAVOK M12/M14 Q1011 NOSIG
Klart
Klart
  Visa detaljer för Oslo (Gardermoen)
Avstånd från stationen: NO 540kmEFMA - Mariehamn / Åland
Uppdaterad: 2023-02-02 08:20
 Vind från N
Vind: N 6 km/h
Temperatur: -1°C
Daggpunkt: -2°C
Luftfuktighet: 93%
Barometer: 1006 hPa
Moln: Övervägande molnigt
Sikt: 10 km
Molninformation: Övervägande molnigt 396 m
Övervägande molnigt 1189 m
Övervägande molnigt 1311 m
2023/02/02 07:20 EFMA 020720Z AUTO 35003KT 320V020 9999 BKN013 BKN039 BKN043 M01/M02 Q1006 REFZRA
Övervägande molnigt
Övervägande molnigt
  Visa detaljer för Mariehamn / Åland
Avstånd från stationen: S 558kmEDDT - Berlin (Tegel), Germany
Uppdaterad: 2020-11-09 07:50
Ej aktuell
 Vind från O
Vind: O 11 km/h
Temperatur: 6°C
Vindavkylning: 4°C
Daggpunkt: 5°C
Luftfuktighet: 93%
Barometer: 1027 hPa
Summering: Dimmigt
Moln: Genommulet
Sikt: 3 km
Molninformation: Genommulet 91 m
2020/11/09 06:50 EDDT 090650Z 09006KT 050V120 3000 BR OVC003 06/05 Q1027
Dimmigt, Genommulet
Dimmigt
Genommulet
  Visa detaljer för Berlin (Tegel), Germany
Avstånd från stationen: SV 737kmEHAM - Amsterdam (Schiphol)
Uppdaterad: 2023-02-02 08:25
 Vind från V
Vind: V 33 km/h
Temperatur: 8°C
Vindavkylning: 3°C
Daggpunkt: 6°C
Luftfuktighet: 87%
Barometer: 1021 hPa
Moln: Övervägande molnigt
Sikt: 10 km
Molninformation: Några få moln 274 m
Övervägande molnigt 549 m
Övervägande molnigt 914 m
2023/02/02 07:25 EHAM 020725Z 27018KT 9999 FEW009 BKN018 BKN030 08/06 Q1021 BECMG BKN021
Övervägande molnigt
Övervägande molnigt
  Visa detaljer för Amsterdam (Schiphol)
Avstånd från stationen: ONO 808kmEFHK - Helsingfors (Vantaa)
Uppdaterad: 2023-02-02 08:20
 Vind från NNV
Vind: NNV 13 km/h
Temperatur: -3°C
Vindavkylning: -7°C
Daggpunkt: -4°C
Luftfuktighet: 93%
Barometer: 1002 hPa
Summering: Klart
Sikt: mer än 10 km
2023/02/02 07:20 EFHK 020720Z 34007KT CAVOK M03/M04 Q1002 NOSIG
Klart
Klart
  Visa detaljer för Helsingfors (Vantaa)
Avstånd från stationen: SSV 537kmEDDW - Bremen
Uppdaterad: 2023-02-02 08:20
 Vind från V
Vind: V 19 km/h
Temperatur: 4°C
Vindavkylning: 0°C
Daggpunkt: 3°C
Luftfuktighet: 93%
Barometer: 1017 hPa
Moln: Några få moln
Sikt: 10 km
Molninformation: Några få moln 914 m
2023/02/02 07:20 EDDW 020720Z AUTO 28010KT 9999 FEW030 04/03 Q1017 NOSIG
Några få moln
Några få moln
  Visa detaljer för Bremen
Avstånd från stationen: SSV 861kmEDDF - Frankfurt am Main
Uppdaterad: 2023-02-02 08:20
 Vind från SV
Vind: SV 24 km/h
Temperatur: 8°C
Vindavkylning: 4°C
Daggpunkt: 4°C
Luftfuktighet: 76%
Barometer: 1022 hPa
Moln: Genommulet
Sikt: 10 km
Molninformation: Genommulet 762 m
2023/02/02 07:20 EDDF 020720Z AUTO 23013KT 9999 OVC025 08/04 Q1022 NOSIG
Genommulet
Genommulet
  Visa detaljer för Frankfurt am Main
Avstånd från stationen: SV 880kmEBBR - Bryssel international
Uppdaterad: 2023-02-02 08:20
 Vind från V
Vind: V 22 km/h
Temperatur: 7°C
Vindavkylning: 4°C
Daggpunkt: 5°C
Luftfuktighet: 87%
Barometer: 1025 hPa
Moln: Övervägande molnigt
Sikt: 10 km
Molninformation: Några få moln 518 m
Övervägande molnigt 853 m
2023/02/02 07:20 EBBR 020720Z 26012KT 9999 FEW017 BKN028 07/05 Q1025 NOSIG
Övervägande molnigt
Övervägande molnigt
  Visa detaljer för Bryssel international
Avstånd från stationen: SV 738kmEHAM - Amsterdam (Schiphol)
Uppdaterad: 2023-02-02 08:25
 Vind från V
Vind: V 33 km/h
Temperatur: 8°C
Vindavkylning: 3°C
Daggpunkt: 6°C
Luftfuktighet: 87%
Barometer: 1021 hPa
Moln: Övervägande molnigt
Sikt: 10 km
Molninformation: Några få moln 274 m
Övervägande molnigt 549 m
Övervägande molnigt 914 m
2023/02/02 07:25 EHAM 020725Z 27018KT 9999 FEW009 BKN018 BKN030 08/06 Q1021 BECMG BKN021
Övervägande molnigt
Övervägande molnigt
  Visa detaljer för Amsterdam (Schiphol)
Avstånd från stationen: SV 1044kmEGLL - London (Heathrow)
Uppdaterad: 2023-02-02 08:20
 Vind från V
Vind: V 13 km/h
Temperatur: 7°C
Vindavkylning: 5°C
Daggpunkt: 4°C
Luftfuktighet: 81%
Barometer: 1027 hPa
Moln: Klart
Sikt: 10 km
2023/02/02 07:20 EGLL 020720Z AUTO 26007KT 9999 NCD 07/04 Q1027 NOSIG
Klart
Klart
  Visa detaljer för London (Heathrow)
Avstånd från stationen: SV 1132kmLFPG - Paris (Charles de Gaulle)
Uppdaterad: 2023-02-02 08:30
 Vind från SV
Vind: SV 17 km/h
Temperatur: 6°C
Vindavkylning: 3°C
Daggpunkt: 4°C
Luftfuktighet: 87%
Barometer: 1030 hPa
Moln: Genommulet
Sikt: 10 km
Molninformation: Genommulet 1067 m
2023/02/02 07:30 LFPG 020730Z 23009KT 9999 OVC035 06/04 Q1030 NOSIG
Genommulet
Genommulet
  Visa detaljer för Paris (Charles de Gaulle)
Avstånd från stationen: SSV 1142kmLSZH - Zürich Airport
Uppdaterad: 2023-02-02 08:20
 Vind från V
Vind: V 17 km/h
Temperatur: 4°C
Vindavkylning: 0°C
Daggpunkt: 0°C
Luftfuktighet: 75%
Barometer: 1029 hPa
Moln: Övervägande molnigt
Sikt: 10 km
Molninformation: Några få moln 762 m
Övervägande molnigt 1676 m
2023/02/02 07:20 LSZH 020720Z 26009KT 9999 FEW025 BKN055 04/M00 Q1029 NOSIG
Övervägande molnigt
Övervägande molnigt
  Visa detaljer för Zürich Airport
Avstånd från stationen: S 1749kmLIRF - Rome Airport (Fiumicino - Leonardo da Vinci)
Uppdaterad: 2023-02-02 08:20
 Vind från ONO
Vind: ONO 9 km/h
Temperatur: 6°C
Vindavkylning: 4°C
Daggpunkt: 4°C
Luftfuktighet: 87%
Barometer: 1023 hPa
Moln: Delvis molnigt
Sikt: 10 km
Molninformation: Delvis molnigt 1067 m
2023/02/02 07:20 LIRF 020720Z 07005KT 9999 SCT035 06/04 Q1023 NOSIG
Delvis molnigt
Delvis molnigt
  Visa detaljer för Rome Airport (Fiumicino - Leonardo da Vinci)
Avstånd från stationen: SO 2679kmLTAI - Antalya
Uppdaterad: 2023-02-02 08:20
 Vind från NV
Vind: NV 35 km/h
Temperatur: 9°C
Vindavkylning: 5°C
Daggpunkt: -8°C
Luftfuktighet: 29%
Barometer: 1019 hPa
Summering: Klart
Sikt: mer än 10 km
2023/02/02 07:20 LTAI 020720Z 32019KT CAVOK 09/M08 Q1019 NOSIG
Klart
Klart
  Visa detaljer för Antalya
Avstånd från stationen: VSV 6074kmKJFK - New Your (JFK)
Uppdaterad: 2023-02-02 07:51
 Vind från N
Vind: N 13 km/h
Temperatur: -2°C
Vindavkylning: -7°C
Daggpunkt: -12°C
Luftfuktighet: 47%
Barometer: 1025.4 hPa
Moln: Övervägande molnigt
Sikt: 16 km
Molninformation: Övervägande molnigt 7620 m
2023/02/02 06:51 KJFK 020651Z 36007KT 10SM BKN250 M02/M12 A3028 RMK AO2 SLP253 T10221117
Övervägande molnigt
Övervägande molnigt
  Visa detaljer för New Your (JFK)
Avstånd från stationen: VSV 8848kmKLAX - Los Angeles International Airport
Uppdaterad: 2023-02-02 07:53
 Vind från NO
Vind: NO 9 km/h
Temperatur: 11°C
Daggpunkt: 4°C
Luftfuktighet: 62%
Barometer: 1023.4 hPa
Moln: Klart
Sikt: 16 km
2023/02/02 06:53 KLAX 020653Z 05005KT 10SM CLR 11/04 A3022 RMK AO2 SLP231 T01110044 $
Klart
Klart
  Visa detaljer för Los Angeles International Airport
Avstånd från stationen: SO 4968kmOMDB - Dubai International Airport
Uppdaterad: 2023-02-02 08:00
 Vind från S
Vind: S 15 km/h
Temperatur: 24°C
Daggpunkt: 14°C
Luftfuktighet: 54%
Barometer: 1018 hPa
Summering: Klart
Sikt: mer än 10 km
2023/02/02 07:00 OMDB 020700Z 19008KT 130V210 CAVOK 24/14 Q1018 NOSIG
Klart
Klart
  Visa detaljer för Dubai International Airport
Avstånd från stationen: OSO 8570kmRJTT - Tokyo International Airport
Uppdaterad: 2023-02-02 08:30
 Vind från NNV
Vind: NNV 24 km/h
Moln: Övervägande molnigt
Sikt: 10 km
Molninformation: Några få moln 914 m
Övervägande molnigt 1829 m
2023/02/02 07:30 RJTT 020730Z 34013KT 9999 FEW030 BKN060 BKN/// 08/M08 Q1017 NOSIG
Övervägande molnigt
Övervägande molnigt
  Visa detaljer för Tokyo International Airport
Avstånd från stationen: OSO 7125kmZBAA - Peking (Beijing Capital)
Uppdaterad: 2023-02-02 08:30
 Vind från S
Vind: S 7 km/h
Temperatur: 1°C
Vindavkylning: -1°C
Daggpunkt: -22°C
Luftfuktighet: 16%
Barometer: 1029 hPa
Summering: Klart
Sikt: mer än 10 km
2023/02/02 07:30 ZBAA 020730Z 17002MPS 130V220 CAVOK 01/M22 Q1029 NOSIG
Klart
Klart
  Visa detaljer för Peking (Beijing Capital)
VÄDER KURIOSA -  AstronomyVenus rotates east to west.